createdAt,value
2022-09-14T00:03:01.100Z,14.30
2022-09-14T00:08:04.221Z,14.37
2022-09-14T00:13:07.332Z,14.70
2022-09-14T00:18:10.718Z,13.43
2022-09-14T00:23:13.114Z,15.37
2022-09-14T00:28:15.476Z,17.10
2022-09-14T00:33:17.894Z,16.77
2022-09-14T00:38:20.291Z,14.87
2022-09-14T00:43:22.626Z,14.73
2022-09-14T00:48:26.983Z,15.23
2022-09-14T00:53:31.238Z,14.10
2022-09-14T00:58:33.748Z,14.00
2022-09-14T01:03:37.077Z,12.83
2022-09-14T01:09:00.593Z,12.60
2022-09-14T01:14:02.910Z,11.73
2022-09-14T01:19:16.701Z,12.90
2022-09-14T01:24:21.815Z,11.67
2022-09-14T01:29:33.337Z,12.37
2022-09-14T01:35:15.680Z,11.87
2022-09-14T01:40:36.748Z,11.20
2022-09-14T01:45:46.306Z,11.63
2022-09-14T01:50:53.560Z,14.47
2022-09-14T01:56:01.874Z,14.70
2022-09-14T02:01:07.677Z,13.70
2022-09-14T02:06:28.876Z,14.27
2022-09-14T02:11:31.276Z,13.73
2022-09-14T02:16:33.740Z,11.83
2022-09-14T02:21:36.371Z,12.37
2022-09-14T02:26:40.119Z,11.07
2022-09-14T02:31:53.395Z,11.93
2022-09-14T02:36:58.694Z,11.23
2022-09-14T02:42:17.170Z,10.93
2022-09-14T02:47:33.046Z,10.63
2022-09-14T02:53:01.355Z,10.93
2022-09-14T02:58:08.832Z,11.53
2022-09-14T03:03:13.120Z,10.70
2022-09-14T03:08:15.462Z,10.53
2022-09-14T03:13:22.096Z,12.33
2022-09-14T03:18:24.500Z,11.03
2022-09-14T03:23:26.776Z,21.83
2022-09-14T03:28:29.065Z,32.60
2022-09-14T03:33:31.661Z,40.60
2022-09-14T03:38:33.991Z,50.27
2022-09-14T03:43:36.509Z,21.07
2022-09-14T03:48:39.311Z,15.63
2022-09-14T03:53:43.003Z,19.50
2022-09-14T03:58:47.205Z,28.87
2022-09-14T04:03:50.217Z,29.03
2022-09-14T04:08:52.520Z,18.20
2022-09-14T04:13:54.858Z,13.03
2022-09-14T04:18:57.614Z,13.77
2022-09-14T04:24:16.328Z,13.17
2022-09-14T04:29:18.920Z,13.13
2022-09-14T04:34:21.247Z,13.40
2022-09-14T04:39:24.072Z,11.87
2022-09-14T04:44:26.377Z,14.17
2022-09-14T04:49:29.076Z,22.50
2022-09-14T04:54:31.495Z,13.63
2022-09-14T04:59:34.988Z,15.13
2022-09-14T05:04:37.362Z,10.67
2022-09-14T05:09:39.770Z,9.47
2022-09-14T05:14:42.159Z,9.83
2022-09-14T05:19:44.600Z,14.37
2022-09-14T05:24:47.122Z,11.33
2022-09-14T05:29:49.521Z,14.03
2022-09-14T05:34:51.958Z,9.90
2022-09-14T05:39:56.864Z,12.10
2022-09-14T05:44:59.348Z,9.73
2022-09-14T05:50:01.749Z,11.03
2022-09-14T05:55:04.927Z,12.27
2022-09-14T06:00:08.390Z,12.23
2022-09-14T06:05:14.645Z,10.50
2022-09-14T06:10:17.137Z,13.97
2022-09-14T06:15:19.472Z,8.37
2022-09-14T06:20:21.841Z,9.73
2022-09-14T06:25:24.212Z,6.80
2022-09-14T06:30:27.701Z,6.43
2022-09-14T06:35:30.073Z,6.83
2022-09-14T06:40:32.753Z,6.63
2022-09-14T06:45:37.900Z,5.90
2022-09-14T06:50:40.264Z,5.47
2022-09-14T06:55:44.758Z,5.47
2022-09-14T07:00:50.265Z,5.73
2022-09-14T07:05:52.650Z,5.07
2022-09-14T07:10:58.921Z,4.93
2022-09-14T07:16:01.464Z,4.67
2022-09-14T07:21:08.914Z,4.53
2022-09-14T07:26:20.415Z,4.43
2022-09-14T07:31:38.414Z,4.23
2022-09-14T07:36:41.641Z,4.03
2022-09-14T07:41:44.773Z,4.70
2022-09-14T07:46:47.683Z,3.20
2022-09-14T07:51:50.137Z,3.20
2022-09-14T07:56:52.664Z,2.50
2022-09-14T08:01:55.446Z,2.40
2022-09-14T08:06:58.002Z,2.20
2022-09-14T08:12:00.638Z,2.30
2022-09-14T08:17:03.434Z,2.20
2022-09-14T08:22:05.905Z,2.63
2022-09-14T08:27:12.229Z,1.83
2022-09-14T08:32:14.665Z,2.10
2022-09-14T08:37:17.053Z,2.50
2022-09-14T08:42:20.909Z,2.27
2022-09-14T08:47:34.424Z,1.60
2022-09-14T08:52:48.479Z,1.70
2022-09-14T08:58:10.149Z,1.67
2022-09-14T09:03:53.748Z,1.87
2022-09-14T09:09:08.656Z,2.10
2022-09-14T09:14:38.915Z,1.63
2022-09-14T09:19:51.778Z,1.70
2022-09-14T09:24:55.433Z,1.80
2022-09-14T09:29:57.736Z,1.40
2022-09-14T09:35:10.927Z,2.05
2022-09-14T09:40:35.690Z,1.70
2022-09-14T09:46:00.755Z,2.30
2022-09-14T09:51:15.590Z,2.60
2022-09-14T09:56:29.323Z,2.05
2022-09-14T10:01:36.032Z,1.65
2022-09-14T10:06:48.184Z,3.00
2022-09-14T10:12:04.840Z,2.00
2022-09-14T10:17:08.641Z,1.77
2022-09-14T10:22:20.948Z,1.73
2022-09-14T10:27:42.138Z,1.80
2022-09-14T10:32:56.459Z,1.83
2022-09-14T10:38:29.079Z,1.77
2022-09-14T10:44:02.720Z,1.83
2022-09-14T10:49:27.290Z,1.95
2022-09-14T10:54:51.573Z,2.78
2022-09-14T10:59:58.816Z,2.78
2022-09-14T11:05:23.995Z,2.00
2022-09-14T11:10:47.143Z,1.92
2022-09-14T11:16:06.145Z,2.00
2022-09-14T11:21:16.207Z,1.70
2022-09-14T11:26:49.460Z,2.40
2022-09-14T11:32:20.398Z,2.00
2022-09-14T11:38:00.948Z,1.30
2022-09-14T11:43:11.576Z,1.98
2022-09-14T11:48:41.999Z,1.92
2022-09-14T11:53:46.611Z,2.28
2022-09-14T11:58:50.063Z,3.30
2022-09-14T12:04:01.445Z,1.80
2022-09-14T12:09:24.038Z,1.90
2022-09-14T12:14:32.215Z,1.40
2022-09-14T12:19:35.389Z,1.48
2022-09-14T12:24:39.715Z,1.35
2022-09-14T12:29:42.028Z,1.42
2022-09-14T12:34:44.404Z,3.13
2022-09-14T12:40:23.935Z,1.55
2022-09-14T12:45:59.918Z,2.83
2022-09-14T12:51:04.132Z,1.50
2022-09-14T12:56:18.369Z,1.42
2022-09-14T13:01:42.066Z,2.30
2022-09-14T13:06:47.167Z,1.58
2022-09-14T13:11:58.753Z,1.15
2022-09-14T13:17:04.576Z,1.50
2022-09-14T13:22:31.817Z,1.40
2022-09-14T13:27:37.951Z,2.20
2022-09-14T13:32:43.995Z,1.30
2022-09-14T13:37:48.488Z,2.30
2022-09-14T13:42:51.401Z,1.73
2022-09-14T13:47:54.413Z,1.80
2022-09-14T13:53:02.353Z,1.50
2022-09-14T13:58:21.126Z,1.42
2022-09-14T14:03:35.626Z,1.27
2022-09-14T14:08:38.951Z,1.70
2022-09-14T14:13:41.342Z,1.83
2022-09-14T14:18:54.706Z,1.55
2022-09-14T14:24:16.995Z,1.50
2022-09-14T14:29:19.824Z,1.52
2022-09-14T14:34:25.980Z,1.58
2022-09-14T14:39:28.472Z,2.42
2022-09-14T14:44:31.134Z,29.90
2022-09-14T14:49:33.753Z,4.63
2022-09-14T14:54:36.147Z,2.40
2022-09-14T14:59:39.858Z,2.60
2022-09-14T15:04:42.191Z,1.83
2022-09-14T15:09:45.676Z,2.55
2022-09-14T15:14:48.058Z,4.93
2022-09-14T15:19:50.735Z,3.67
2022-09-14T15:24:53.172Z,6.40
2022-09-14T15:29:56.136Z,3.90
2022-09-14T15:34:58.539Z,4.18
2022-09-14T15:40:01.173Z,7.80
2022-09-14T15:45:05.195Z,4.35
2022-09-14T15:50:07.972Z,4.65
2022-09-14T15:55:11.698Z,3.40
2022-09-14T16:00:15.477Z,3.50
2022-09-14T16:05:19.063Z,2.75
2022-09-14T16:10:22.678Z,2.55
2022-09-14T16:15:25.093Z,2.00
2022-09-14T16:20:29.370Z,2.70
2022-09-14T16:25:36.490Z,2.70
2022-09-14T16:30:38.875Z,2.57
2022-09-14T16:35:41.448Z,2.63
2022-09-14T16:40:43.880Z,2.50
2022-09-14T16:45:46.408Z,3.90
2022-09-14T16:50:53.438Z,4.37
2022-09-14T16:56:15.326Z,8.50
2022-09-14T17:01:21.887Z,3.47
2022-09-14T17:06:28.580Z,10.17
2022-09-14T17:11:32.979Z,6.83
2022-09-14T17:16:35.867Z,6.23
2022-09-14T17:21:40.453Z,8.30
2022-09-14T17:26:42.954Z,9.00
2022-09-14T17:31:46.049Z,9.07
2022-09-14T17:36:48.513Z,9.03
2022-09-14T17:41:51.134Z,10.93
2022-09-14T17:46:53.673Z,6.33
2022-09-14T17:51:56.101Z,4.80
2022-09-14T17:57:01.594Z,3.60
2022-09-14T18:02:04.058Z,4.00
2022-09-14T18:07:06.664Z,4.23
2022-09-14T18:12:10.401Z,10.80
2022-09-14T18:17:12.976Z,30.13
2022-09-14T18:22:16.838Z,10.23
2022-09-14T18:27:19.614Z,5.57
2022-09-14T18:32:22.043Z,4.00
2022-09-14T18:37:24.516Z,4.57
2022-09-14T18:42:26.935Z,4.80
2022-09-14T18:47:29.812Z,6.10
2022-09-14T18:52:32.552Z,6.67
2022-09-14T18:57:35.267Z,5.43
2022-09-14T19:02:39.026Z,6.67
2022-09-14T19:07:41.377Z,7.07
2022-09-14T19:12:43.986Z,9.40
2022-09-14T19:17:46.366Z,8.33
2022-09-14T19:22:51.776Z,6.50
2022-09-14T19:27:54.167Z,8.73
2022-09-14T19:32:56.953Z,8.10
2022-09-14T19:37:59.402Z,9.23
2022-09-14T19:43:01.832Z,12.63
2022-09-14T19:48:04.472Z,19.37
2022-09-14T19:53:07.175Z,13.13
2022-09-14T19:58:09.544Z,13.57
2022-09-14T20:03:12.033Z,11.23
2022-09-14T20:08:14.533Z,11.37
2022-09-14T20:13:16.968Z,10.20
2022-09-14T20:18:19.367Z,11.67
2022-09-14T20:23:21.891Z,12.20
2022-09-14T20:28:27.378Z,8.73
2022-09-14T20:33:30.508Z,9.43
2022-09-14T20:38:46.571Z,9.77
2022-09-14T20:43:53.492Z,14.83
2022-09-14T20:48:55.939Z,16.83
2022-09-14T20:53:58.606Z,13.20
2022-09-14T20:59:02.847Z,12.17
2022-09-14T21:04:11.200Z,15.23
2022-09-14T21:09:15.047Z,14.43
2022-09-14T21:14:18.933Z,18.57
2022-09-14T21:19:24.369Z,18.97
2022-09-14T21:24:26.826Z,13.97
2022-09-14T21:29:29.344Z,9.83
2022-09-14T21:34:31.927Z,6.53
2022-09-14T21:39:35.096Z,5.60
2022-09-14T21:44:38.021Z,5.60
2022-09-14T21:49:40.488Z,5.73
2022-09-14T21:54:43.179Z,5.23
2022-09-14T21:59:45.607Z,4.47
2022-09-14T22:04:48.013Z,6.73
2022-09-14T22:09:52.674Z,8.67
2022-09-14T22:14:55.082Z,9.03
2022-09-14T22:19:59.477Z,6.87
2022-09-14T22:25:02.034Z,6.23
2022-09-14T22:30:04.760Z,6.37
2022-09-14T22:35:07.625Z,5.33
2022-09-14T22:40:10.500Z,6.17
2022-09-14T22:45:12.965Z,6.50
2022-09-14T22:50:15.553Z,6.63
2022-09-14T22:55:18.143Z,6.53
2022-09-14T23:00:20.661Z,5.40
2022-09-14T23:05:23.089Z,6.10
2022-09-14T23:10:25.507Z,7.50
2022-09-14T23:15:28.015Z,7.93
2022-09-14T23:20:31.106Z,7.30
2022-09-14T23:25:35.475Z,7.33
2022-09-14T23:30:38.273Z,6.50
2022-09-14T23:35:40.709Z,6.20
2022-09-14T23:40:43.501Z,6.27
2022-09-14T23:45:47.209Z,5.27
2022-09-14T23:50:57.823Z,6.37
2022-09-14T23:56:00.979Z,7.50
